sensor_id;sensor_type;location;lat;lon;timestamp;P1;durP1;ratioP1;P2;durP2;ratioP2
12363;SDS011;6246;50.826;4.712;2023-02-15T00:01:54;13.30;;;9.20;;
12363;SDS011;6246;50.826;4.712;2023-02-15T00:04:21;14.33;;;9.87;;
12363;SDS011;6246;50.826;4.712;2023-02-15T00:06:48;13.10;;;8.77;;
12363;SDS011;6246;50.826;4.712;2023-02-15T00:09:14;12.47;;;9.07;;
12363;SDS011;6246;50.826;4.712;2023-02-15T00:11:40;13.70;;;9.30;;
12363;SDS011;6246;50.826;4.712;2023-02-15T00:14:14;13.37;;;9.07;;
12363;SDS011;6246;50.826;4.712;2023-02-15T00:16:41;13.03;;;8.73;;
12363;SDS011;6246;50.826;4.712;2023-02-15T00:19:08;13.47;;;9.20;;
12363;SDS011;6246;50.826;4.712;2023-02-15T00:21:34;14.57;;;8.70;;
12363;SDS011;6246;50.826;4.712;2023-02-15T00:24:01;11.63;;;8.93;;
12363;SDS011;6246;50.826;4.712;2023-02-15T00:26:28;12.23;;;8.90;;
12363;SDS011;6246;50.826;4.712;2023-02-15T00:28:54;11.70;;;8.47;;
12363;SDS011;6246;50.826;4.712;2023-02-15T00:31:20;13.30;;;8.87;;
12363;SDS011;6246;50.826;4.712;2023-02-15T00:33:46;12.57;;;8.70;;
12363;SDS011;6246;50.826;4.712;2023-02-15T00:36:13;12.80;;;9.10;;
12363;SDS011;6246;50.826;4.712;2023-02-15T00:38:39;12.43;;;9.60;;
12363;SDS011;6246;50.826;4.712;2023-02-15T00:41:05;10.73;;;8.43;;
12363;SDS011;6246;50.826;4.712;2023-02-15T00:43:32;14.47;;;8.67;;
12363;SDS011;6246;50.826;4.712;2023-02-15T00:45:59;10.93;;;8.70;;
12363;SDS011;6246;50.826;4.712;2023-02-15T00:48:25;12.87;;;8.20;;
12363;SDS011;6246;50.826;4.712;2023-02-15T00:50:52;13.53;;;8.40;;
12363;SDS011;6246;50.826;4.712;2023-02-15T00:53:18;11.37;;;8.40;;
12363;SDS011;6246;50.826;4.712;2023-02-15T00:55:45;10.87;;;8.07;;
12363;SDS011;6246;50.826;4.712;2023-02-15T00:58:11;12.00;;;8.03;;
12363;SDS011;6246;50.826;4.712;2023-02-15T01:00:37;11.20;;;8.47;;
12363;SDS011;6246;50.826;4.712;2023-02-15T01:03:04;13.03;;;8.47;;
12363;SDS011;6246;50.826;4.712;2023-02-15T01:05:31;12.30;;;8.67;;
12363;SDS011;6246;50.826;4.712;2023-02-15T01:07:57;12.47;;;8.03;;
12363;SDS011;6246;50.826;4.712;2023-02-15T01:10:24;11.00;;;8.07;;
12363;SDS011;6246;50.826;4.712;2023-02-15T01:12:50;12.27;;;8.17;;
12363;SDS011;6246;50.826;4.712;2023-02-15T01:15:16;13.17;;;8.43;;
12363;SDS011;6246;50.826;4.712;2023-02-15T01:17:42;12.03;;;8.60;;
12363;SDS011;6246;50.826;4.712;2023-02-15T01:20:10;11.53;;;7.63;;
12363;SDS011;6246;50.826;4.712;2023-02-15T01:22:36;12.07;;;8.33;;
12363;SDS011;6246;50.826;4.712;2023-02-15T01:25:03;11.47;;;7.97;;
12363;SDS011;6246;50.826;4.712;2023-02-15T01:27:29;11.60;;;8.13;;
12363;SDS011;6246;50.826;4.712;2023-02-15T01:29:56;15.27;;;8.70;;
12363;SDS011;6246;50.826;4.712;2023-02-15T01:32:22;10.33;;;7.57;;
12363;SDS011;6246;50.826;4.712;2023-02-15T01:34:48;11.07;;;8.27;;
12363;SDS011;6246;50.826;4.712;2023-02-15T01:37:14;11.67;;;8.17;;
12363;SDS011;6246;50.826;4.712;2023-02-15T01:39:40;11.33;;;8.30;;
12363;SDS011;6246;50.826;4.712;2023-02-15T01:42:09;10.50;;;7.73;;
12363;SDS011;6246;50.826;4.712;2023-02-15T01:44:49;10.63;;;8.10;;
12363;SDS011;6246;50.826;4.712;2023-02-15T01:47:16;12.43;;;8.20;;
12363;SDS011;6246;50.826;4.712;2023-02-15T01:49:43;12.90;;;8.10;;
12363;SDS011;6246;50.826;4.712;2023-02-15T01:52:11;12.30;;;8.00;;
12363;SDS011;6246;50.826;4.712;2023-02-15T01:54:38;12.17;;;8.10;;
12363;SDS011;6246;50.826;4.712;2023-02-15T01:57:08;9.43;;;7.47;;
12363;SDS011;6246;50.826;4.712;2023-02-15T01:59:34;10.87;;;8.37;;
12363;SDS011;6246;50.826;4.712;2023-02-15T02:02:01;9.90;;;7.50;;
12363;SDS011;6246;50.826;4.712;2023-02-15T02:06:56;10.80;;;7.57;;
12363;SDS011;6246;50.826;4.712;2023-02-15T02:09:23;9.97;;;7.53;;
12363;SDS011;6246;50.826;4.712;2023-02-15T02:11:49;10.23;;;7.83;;
12363;SDS011;6246;50.826;4.712;2023-02-15T02:14:16;9.03;;;7.43;;
12363;SDS011;6246;50.826;4.712;2023-02-15T02:17:05;11.27;;;8.17;;
12363;SDS011;6246;50.826;4.712;2023-02-15T02:22:18;9.30;;;7.50;;
12363;SDS011;6246;50.826;4.712;2023-02-15T02:32:33;11.53;;;8.57;;
12363;SDS011;6246;50.826;4.712;2023-02-15T02:35:11;10.03;;;7.53;;
12363;SDS011;6246;50.826;4.712;2023-02-15T02:38:01;11.07;;;8.20;;
12363;SDS011;6246;50.826;4.712;2023-02-15T02:42:56;10.20;;;7.93;;
12363;SDS011;6246;50.826;4.712;2023-02-15T02:45:26;11.60;;;8.10;;
12363;SDS011;6246;50.826;4.712;2023-02-15T02:47:56;11.00;;;8.33;;
12363;SDS011;6246;50.826;4.712;2023-02-15T02:50:28;10.30;;;8.00;;
12363;SDS011;6246;50.826;4.712;2023-02-15T02:52:55;10.20;;;7.47;;
12363;SDS011;6246;50.826;4.712;2023-02-15T02:55:26;11.17;;;7.87;;
12363;SDS011;6246;50.826;4.712;2023-02-15T02:58:03;9.60;;;7.27;;
12363;SDS011;6246;50.826;4.712;2023-02-15T03:00:32;10.17;;;7.70;;
12363;SDS011;6246;50.826;4.712;2023-02-15T03:03:02;11.97;;;8.07;;
12363;SDS011;6246;50.826;4.712;2023-02-15T03:05:30;9.37;;;7.33;;
12363;SDS011;6246;50.826;4.712;2023-02-15T03:07:57;11.27;;;7.40;;
12363;SDS011;6246;50.826;4.712;2023-02-15T03:10:26;10.20;;;7.80;;
12363;SDS011;6246;50.826;4.712;2023-02-15T03:12:54;10.90;;;8.33;;
12363;SDS011;6246;50.826;4.712;2023-02-15T03:15:34;14.07;;;8.00;;
12363;SDS011;6246;50.826;4.712;2023-02-15T03:18:22;13.30;;;7.70;;
12363;SDS011;6246;50.826;4.712;2023-02-15T03:20:50;10.40;;;7.83;;
12363;SDS011;6246;50.826;4.712;2023-02-15T03:23:17;13.00;;;8.40;;
12363;SDS011;6246;50.826;4.712;2023-02-15T03:25:45;10.30;;;7.90;;
12363;SDS011;6246;50.826;4.712;2023-02-15T03:28:21;9.90;;;7.57;;
12363;SDS011;6246;50.826;4.712;2023-02-15T03:30:51;11.57;;;7.57;;
12363;SDS011;6246;50.826;4.712;2023-02-15T03:33:18;12.33;;;7.87;;
12363;SDS011;6246;50.826;4.712;2023-02-15T03:35:47;13.13;;;8.10;;
12363;SDS011;6246;50.826;4.712;2023-02-15T03:38:17;11.37;;;7.47;;
12363;SDS011;6246;50.826;4.712;2023-02-15T03:40:45;11.63;;;7.57;;
12363;SDS011;6246;50.826;4.712;2023-02-15T03:43:51;10.50;;;7.90;;
12363;SDS011;6246;50.826;4.712;2023-02-15T03:46:37;10.33;;;8.23;;
12363;SDS011;6246;50.826;4.712;2023-02-15T03:49:22;15.43;;;9.50;;
12363;SDS011;6246;50.826;4.712;2023-02-15T03:51:48;13.30;;;9.50;;
12363;SDS011;6246;50.826;4.712;2023-02-15T03:54:20;13.93;;;10.00;;
12363;SDS011;6246;50.826;4.712;2023-02-15T03:57:07;15.70;;;11.40;;
12363;SDS011;6246;50.826;4.712;2023-02-15T03:59:52;14.90;;;11.17;;
12363;SDS011;6246;50.826;4.712;2023-02-15T04:02:38;25.27;;;15.77;;
12363;SDS011;6246;50.826;4.712;2023-02-15T04:05:05;23.77;;;17.07;;
12363;SDS011;6246;50.826;4.712;2023-02-15T04:07:31;27.87;;;18.30;;
12363;SDS011;6246;50.826;4.712;2023-02-15T04:09:57;25.90;;;19.00;;
12363;SDS011;6246;50.826;4.712;2023-02-15T04:12:42;25.00;;;19.27;;
12363;SDS011;6246;50.826;4.712;2023-02-15T04:15:11;26.40;;;19.90;;
12363;SDS011;6246;50.826;4.712;2023-02-15T04:17:56;29.07;;;20.57;;
12363;SDS011;6246;50.826;4.712;2023-02-15T04:20:22;28.87;;;20.73;;
12363;SDS011;6246;50.826;4.712;2023-02-15T04:23:06;28.23;;;20.50;;
12363;SDS011;6246;50.826;4.712;2023-02-15T04:25:51;27.30;;;19.93;;
12363;SDS011;6246;50.826;4.712;2023-02-15T04:28:17;27.80;;;21.47;;
12363;SDS011;6246;50.826;4.712;2023-02-15T04:30:43;30.43;;;21.20;;
12363;SDS011;6246;50.826;4.712;2023-02-15T04:33:09;29.50;;;21.90;;
12363;SDS011;6246;50.826;4.712;2023-02-15T04:35:35;30.27;;;22.10;;
12363;SDS011;6246;50.826;4.712;2023-02-15T04:38:01;29.40;;;21.60;;
12363;SDS011;6246;50.826;4.712;2023-02-15T04:40:28;32.77;;;23.33;;
12363;SDS011;6246;50.826;4.712;2023-02-15T04:42:54;31.20;;;22.87;;
12363;SDS011;6246;50.826;4.712;2023-02-15T04:45:20;28.77;;;23.00;;
12363;SDS011;6246;50.826;4.712;2023-02-15T04:47:46;29.20;;;21.70;;
12363;SDS011;6246;50.826;4.712;2023-02-15T04:50:12;28.20;;;21.00;;
12363;SDS011;6246;50.826;4.712;2023-02-15T04:52:38;29.50;;;22.23;;
12363;SDS011;6246;50.826;4.712;2023-02-15T04:55:04;28.37;;;20.70;;
12363;SDS011;6246;50.826;4.712;2023-02-15T04:57:30;28.97;;;21.07;;
12363;SDS011;6246;50.826;4.712;2023-02-15T04:59:56;30.23;;;21.47;;
12363;SDS011;6246;50.826;4.712;2023-02-15T05:02:24;29.23;;;21.87;;
12363;SDS011;6246;50.826;4.712;2023-02-15T05:04:50;28.90;;;21.03;;
12363;SDS011;6246;50.826;4.712;2023-02-15T05:07:16;27.87;;;21.13;;
12363;SDS011;6246;50.826;4.712;2023-02-15T05:09:42;27.03;;;20.73;;
12363;SDS011;6246;50.826;4.712;2023-02-15T05:12:08;29.50;;;21.37;;
12363;SDS011;6246;50.826;4.712;2023-02-15T05:14:34;26.90;;;20.57;;
12363;SDS011;6246;50.826;4.712;2023-02-15T05:17:00;26.00;;;19.83;;
12363;SDS011;6246;50.826;4.712;2023-02-15T05:19:28;27.77;;;20.23;;
12363;SDS011;6246;50.826;4.712;2023-02-15T05:21:54;26.87;;;19.40;;
12363;SDS011;6246;50.826;4.712;2023-02-15T05:24:20;25.43;;;19.63;;
12363;SDS011;6246;50.826;4.712;2023-02-15T05:27:05;25.87;;;19.37;;
12363;SDS011;6246;50.826;4.712;2023-02-15T05:29:49;24.80;;;18.30;;
12363;SDS011;6246;50.826;4.712;2023-02-15T05:32:15;25.27;;;18.60;;
12363;SDS011;6246;50.826;4.712;2023-02-15T05:34:41;25.23;;;18.73;;
12363;SDS011;6246;50.826;4.712;2023-02-15T05:37:07;25.17;;;18.03;;
12363;SDS011;6246;50.826;4.712;2023-02-15T05:39:33;24.20;;;17.27;;
12363;SDS011;6246;50.826;4.712;2023-02-15T05:42:00;26.10;;;18.70;;
12363;SDS011;6246;50.826;4.712;2023-02-15T05:44:26;25.37;;;18.17;;
12363;SDS011;6246;50.826;4.712;2023-02-15T05:46:52;22.90;;;17.27;;
12363;SDS011;6246;50.826;4.712;2023-02-15T05:49:18;24.17;;;17.80;;
12363;SDS011;6246;50.826;4.712;2023-02-15T05:51:44;24.40;;;17.43;;
12363;SDS011;6246;50.826;4.712;2023-02-15T05:54:10;25.73;;;18.07;;
12363;SDS011;6246;50.826;4.712;2023-02-15T05:56:36;23.20;;;16.20;;
12363;SDS011;6246;50.826;4.712;2023-02-15T05:59:02;23.77;;;17.10;;
12363;SDS011;6246;50.826;4.712;2023-02-15T06:01:28;26.20;;;17.27;;
12363;SDS011;6246;50.826;4.712;2023-02-15T06:03:54;27.23;;;18.67;;
12363;SDS011;6246;50.826;4.712;2023-02-15T06:06:21;25.17;;;19.27;;
12363;SDS011;6246;50.826;4.712;2023-02-15T06:08:47;27.20;;;19.83;;
12363;SDS011;6246;50.826;4.712;2023-02-15T06:11:13;30.03;;;21.77;;
12363;SDS011;6246;50.826;4.712;2023-02-15T06:13:39;32.60;;;23.23;;
12363;SDS011;6246;50.826;4.712;2023-02-15T06:16:06;28.70;;;20.93;;
12363;SDS011;6246;50.826;4.712;2023-02-15T06:18:32;31.90;;;22.70;;
12363;SDS011;6246;50.826;4.712;2023-02-15T06:20:58;28.53;;;21.37;;
12363;SDS011;6246;50.826;4.712;2023-02-15T06:23:24;33.67;;;22.90;;
12363;SDS011;6246;50.826;4.712;2023-02-15T06:25:50;28.67;;;20.83;;
12363;SDS011;6246;50.826;4.712;2023-02-15T06:28:16;31.97;;;22.90;;
12363;SDS011;6246;50.826;4.712;2023-02-15T06:30:42;30.80;;;21.97;;
12363;SDS011;6246;50.826;4.712;2023-02-15T06:33:08;30.30;;;22.47;;
12363;SDS011;6246;50.826;4.712;2023-02-15T06:35:34;30.33;;;22.47;;
12363;SDS011;6246;50.826;4.712;2023-02-15T06:38:00;28.20;;;21.70;;
12363;SDS011;6246;50.826;4.712;2023-02-15T06:40:26;29.53;;;22.47;;
12363;SDS011;6246;50.826;4.712;2023-02-15T06:42:52;27.87;;;21.93;;
12363;SDS011;6246;50.826;4.712;2023-02-15T06:45:18;27.30;;;20.63;;
12363;SDS011;6246;50.826;4.712;2023-02-15T06:47:44;28.63;;;21.60;;
12363;SDS011;6246;50.826;4.712;2023-02-15T06:50:11;32.53;;;22.33;;
12363;SDS011;6246;50.826;4.712;2023-02-15T06:52:37;29.80;;;21.67;;
12363;SDS011;6246;50.826;4.712;2023-02-15T06:55:04;30.87;;;22.27;;
12363;SDS011;6246;50.826;4.712;2023-02-15T06:57:30;31.13;;;21.63;;
12363;SDS011;6246;50.826;4.712;2023-02-15T06:59:57;28.80;;;20.43;;
12363;SDS011;6246;50.826;4.712;2023-02-15T07:02:23;29.87;;;21.27;;
12363;SDS011;6246;50.826;4.712;2023-02-15T07:04:49;28.93;;;21.63;;
12363;SDS011;6246;50.826;4.712;2023-02-15T07:07:15;28.87;;;20.83;;
12363;SDS011;6246;50.826;4.712;2023-02-15T07:09:41;28.00;;;20.77;;
12363;SDS011;6246;50.826;4.712;2023-02-15T07:12:07;29.00;;;20.83;;
12363;SDS011;6246;50.826;4.712;2023-02-15T07:14:53;28.30;;;19.93;;
12363;SDS011;6246;50.826;4.712;2023-02-15T07:17:19;25.90;;;19.40;;
12363;SDS011;6246;50.826;4.712;2023-02-15T07:19:45;26.20;;;19.20;;
12363;SDS011;6246;50.826;4.712;2023-02-15T07:22:11;26.80;;;20.07;;
12363;SDS011;6246;50.826;4.712;2023-02-15T07:24:37;26.63;;;19.53;;
12363;SDS011;6246;50.826;4.712;2023-02-15T07:27:03;26.80;;;19.40;;
12363;SDS011;6246;50.826;4.712;2023-02-15T07:29:29;28.80;;;19.87;;
12363;SDS011;6246;50.826;4.712;2023-02-15T07:31:55;26.77;;;19.70;;
12363;SDS011;6246;50.826;4.712;2023-02-15T07:34:21;25.97;;;18.13;;
12363;SDS011;6246;50.826;4.712;2023-02-15T07:36:49;24.20;;;18.13;;
12363;SDS011;6246;50.826;4.712;2023-02-15T07:39:15;24.93;;;18.37;;
12363;SDS011;6246;50.826;4.712;2023-02-15T07:41:42;25.60;;;18.30;;
12363;SDS011;6246;50.826;4.712;2023-02-15T07:44:11;26.40;;;19.47;;
12363;SDS011;6246;50.826;4.712;2023-02-15T07:46:37;24.47;;;17.77;;
12363;SDS011;6246;50.826;4.712;2023-02-15T07:49:03;23.77;;;17.93;;
12363;SDS011;6246;50.826;4.712;2023-02-15T07:51:29;22.17;;;16.97;;
12363;SDS011;6246;50.826;4.712;2023-02-15T07:53:55;21.63;;;16.13;;
12363;SDS011;6246;50.826;4.712;2023-02-15T07:56:21;22.83;;;17.03;;
12363;SDS011;6246;50.826;4.712;2023-02-15T07:58:47;22.60;;;16.80;;
12363;SDS011;6246;50.826;4.712;2023-02-15T08:01:38;21.27;;;15.97;;
12363;SDS011;6246;50.826;4.712;2023-02-15T08:04:03;23.87;;;17.17;;
12363;SDS011;6246;50.826;4.712;2023-02-15T08:06:31;21.80;;;16.30;;
12363;SDS011;6246;50.826;4.712;2023-02-15T08:08:57;21.90;;;16.50;;
12363;SDS011;6246;50.826;4.712;2023-02-15T08:11:24;20.57;;;15.73;;
12363;SDS011;6246;50.826;4.712;2023-02-15T08:16:33;24.37;;;15.53;;
12363;SDS011;6246;50.826;4.712;2023-02-15T08:19:04;21.00;;;16.03;;
12363;SDS011;6246;50.826;4.712;2023-02-15T08:21:31;21.93;;;15.07;;
12363;SDS011;6246;50.826;4.712;2023-02-15T08:23:58;20.33;;;15.17;;
12363;SDS011;6246;50.826;4.712;2023-02-15T08:26:25;19.67;;;15.30;;
12363;SDS011;6246;50.826;4.712;2023-02-15T08:28:52;19.70;;;14.03;;
12363;SDS011;6246;50.826;4.712;2023-02-15T08:31:18;18.43;;;13.90;;
12363;SDS011;6246;50.826;4.712;2023-02-15T08:33:44;19.63;;;14.60;;
12363;SDS011;6246;50.826;4.712;2023-02-15T08:36:12;18.43;;;14.10;;
12363;SDS011;6246;50.826;4.712;2023-02-15T08:38:39;18.93;;;14.13;;
12363;SDS011;6246;50.826;4.712;2023-02-15T08:43:40;20.90;;;13.73;;
12363;SDS011;6246;50.826;4.712;2023-02-15T08:46:07;17.97;;;13.63;;
12363;SDS011;6246;50.826;4.712;2023-02-15T08:48:33;19.00;;;13.93;;
12363;SDS011;6246;50.826;4.712;2023-02-15T08:51:03;19.97;;;13.43;;
12363;SDS011;6246;50.826;4.712;2023-02-15T08:53:30;17.53;;;13.53;;
12363;SDS011;6246;50.826;4.712;2023-02-15T08:55:57;19.53;;;13.93;;
12363;SDS011;6246;50.826;4.712;2023-02-15T08:58:23;17.90;;;13.30;;
12363;SDS011;6246;50.826;4.712;2023-02-15T09:00:49;19.37;;;13.60;;
12363;SDS011;6246;50.826;4.712;2023-02-15T09:03:15;18.53;;;13.50;;
12363;SDS011;6246;50.826;4.712;2023-02-15T09:05:41;18.20;;;12.57;;
12363;SDS011;6246;50.826;4.712;2023-02-15T09:08:07;16.37;;;12.63;;
12363;SDS011;6246;50.826;4.712;2023-02-15T09:10:33;15.97;;;12.50;;
12363;SDS011;6246;50.826;4.712;2023-02-15T09:12:59;16.40;;;11.97;;
12363;SDS011;6246;50.826;4.712;2023-02-15T09:15:25;15.30;;;12.00;;
12363;SDS011;6246;50.826;4.712;2023-02-15T09:17:52;16.87;;;11.90;;
12363;SDS011;6246;50.826;4.712;2023-02-15T09:20:18;16.30;;;11.93;;
12363;SDS011;6246;50.826;4.712;2023-02-15T09:22:45;15.27;;;11.50;;
12363;SDS011;6246;50.826;4.712;2023-02-15T09:25:11;16.23;;;11.93;;
12363;SDS011;6246;50.826;4.712;2023-02-15T09:27:38;15.17;;;11.07;;
12363;SDS011;6246;50.826;4.712;2023-02-15T09:30:05;15.87;;;11.93;;
12363;SDS011;6246;50.826;4.712;2023-02-15T09:32:31;14.20;;;10.90;;
12363;SDS011;6246;50.826;4.712;2023-02-15T09:34:57;15.70;;;11.70;;
12363;SDS011;6246;50.826;4.712;2023-02-15T09:37:23;14.40;;;10.93;;
12363;SDS011;6246;50.826;4.712;2023-02-15T09:39:49;14.90;;;11.33;;
12363;SDS011;6246;50.826;4.712;2023-02-15T09:52:59;14.70;;;10.60;;
12363;SDS011;6246;50.826;4.712;2023-02-15T10:11:20;13.60;;;10.07;;
12363;SDS011;6246;50.826;4.712;2023-02-15T10:27:23;12.00;;;8.90;;
12363;SDS011;6246;50.826;4.712;2023-02-15T10:32:22;11.63;;;8.77;;
12363;SDS011;6246;50.826;4.712;2023-02-15T10:34:52;11.40;;;8.30;;
12363;SDS011;6246;50.826;4.712;2023-02-15T10:37:27;12.27;;;8.70;;
12363;SDS011;6246;50.826;4.712;2023-02-15T10:58:05;10.67;;;8.00;;
12363;SDS011;6246;50.826;4.712;2023-02-15T11:00:44;10.07;;;7.53;;
12363;SDS011;6246;50.826;4.712;2023-02-15T11:08:16;10.27;;;7.57;;
12363;SDS011;6246;50.826;4.712;2023-02-15T11:10:44;10.93;;;7.87;;
12363;SDS011;6246;50.826;4.712;2023-02-15T11:13:14;10.00;;;7.27;;
12363;SDS011;6246;50.826;4.712;2023-02-15T11:15:45;10.33;;;8.07;;
12363;SDS011;6246;50.826;4.712;2023-02-15T11:18:15;9.07;;;7.43;;
12363;SDS011;6246;50.826;4.712;2023-02-15T11:23:12;9.63;;;7.23;;
12363;SDS011;6246;50.826;4.712;2023-02-15T11:25:41;9.43;;;7.30;;
12363;SDS011;6246;50.826;4.712;2023-02-15T11:28:17;10.83;;;7.00;;
12363;SDS011;6246;50.826;4.712;2023-02-15T11:30:45;9.43;;;7.13;;
12363;SDS011;6246;50.826;4.712;2023-02-15T11:33:15;9.40;;;6.93;;
12363;SDS011;6246;50.826;4.712;2023-02-15T11:36:05;9.93;;;6.90;;
12363;SDS011;6246;50.826;4.712;2023-02-15T11:38:31;9.70;;;7.00;;
12363;SDS011;6246;50.826;4.712;2023-02-15T11:41:11;9.67;;;7.10;;
12363;SDS011;6246;50.826;4.712;2023-02-15T11:43:46;8.47;;;6.77;;
12363;SDS011;6246;50.826;4.712;2023-02-15T11:46:14;8.87;;;7.20;;
12363;SDS011;6246;50.826;4.712;2023-02-15T11:48:40;10.57;;;6.93;;
12363;SDS011;6246;50.826;4.712;2023-02-15T11:51:17;8.83;;;6.90;;
12363;SDS011;6246;50.826;4.712;2023-02-15T11:53:44;8.20;;;6.80;;
12363;SDS011;6246;50.826;4.712;2023-02-15T11:56:13;7.97;;;6.73;;
12363;SDS011;6246;50.826;4.712;2023-02-15T11:58:44;8.93;;;6.67;;
12363;SDS011;6246;50.826;4.712;2023-02-15T12:06:11;12.53;;;7.20;;
12363;SDS011;6246;50.826;4.712;2023-02-15T12:08:38;8.50;;;6.40;;
12363;SDS011;6246;50.826;4.712;2023-02-15T12:11:12;9.00;;;6.10;;
12363;SDS011;6246;50.826;4.712;2023-02-15T12:14:00;8.43;;;6.30;;
12363;SDS011;6246;50.826;4.712;2023-02-15T12:16:27;8.90;;;6.33;;
12363;SDS011;6246;50.826;4.712;2023-02-15T12:18:55;8.80;;;6.57;;
12363;SDS011;6246;50.826;4.712;2023-02-15T12:23:52;9.70;;;6.07;;
12363;SDS011;6246;50.826;4.712;2023-02-15T12:26:25;8.60;;;6.50;;
12363;SDS011;6246;50.826;4.712;2023-02-15T12:28:52;8.30;;;6.27;;
12363;SDS011;6246;50.826;4.712;2023-02-15T12:33:48;6.87;;;5.80;;
12363;SDS011;6246;50.826;4.712;2023-02-15T12:36:20;8.17;;;6.07;;
12363;SDS011;6246;50.826;4.712;2023-02-15T12:41:29;6.50;;;5.80;;
12363;SDS011;6246;50.826;4.712;2023-02-15T12:44:15;9.50;;;6.40;;
12363;SDS011;6246;50.826;4.712;2023-02-15T12:46:51;7.40;;;6.40;;
12363;SDS011;6246;50.826;4.712;2023-02-15T12:49:21;7.80;;;6.70;;
12363;SDS011;6246;50.826;4.712;2023-02-15T12:54:17;9.97;;;6.70;;
12363;SDS011;6246;50.826;4.712;2023-02-15T12:56:43;7.23;;;6.23;;
12363;SDS011;6246;50.826;4.712;2023-02-15T12:59:12;7.43;;;6.13;;
12363;SDS011;6246;50.826;4.712;2023-02-15T13:01:39;9.70;;;7.50;;
12363;SDS011;6246;50.826;4.712;2023-02-15T13:04:46;9.27;;;6.33;;
12363;SDS011;6246;50.826;4.712;2023-02-15T13:07:00;9.00;;;7.20;;
12363;SDS011;6246;50.826;4.712;2023-02-15T13:11:56;10.23;;;7.30;;
12363;SDS011;6246;50.826;4.712;2023-02-15T13:14:30;12.63;;;7.90;;
12363;SDS011;6246;50.826;4.712;2023-02-15T13:16:58;10.33;;;7.93;;
12363;SDS011;6246;50.826;4.712;2023-02-15T13:22:08;15.27;;;9.33;;
12363;SDS011;6246;50.826;4.712;2023-02-15T13:24:47;12.47;;;8.37;;
12363;SDS011;6246;50.826;4.712;2023-02-15T13:27:19;12.87;;;9.00;;
12363;SDS011;6246;50.826;4.712;2023-02-15T13:29:56;11.33;;;8.40;;
12363;SDS011;6246;50.826;4.712;2023-02-15T13:32:28;12.97;;;8.93;;
12363;SDS011;6246;50.826;4.712;2023-02-15T13:34:56;11.77;;;9.07;;
12363;SDS011;6246;50.826;4.712;2023-02-15T13:42:36;11.63;;;9.37;;
12363;SDS011;6246;50.826;4.712;2023-02-15T13:52:47;15.63;;;11.13;;
12363;SDS011;6246;50.826;4.712;2023-02-15T14:05:36;15.73;;;11.57;;
12363;SDS011;6246;50.826;4.712;2023-02-15T14:08:13;18.13;;;12.20;;
12363;SDS011;6246;50.826;4.712;2023-02-15T14:10:47;13.47;;;11.13;;
12363;SDS011;6246;50.826;4.712;2023-02-15T14:15:59;17.03;;;12.53;;
12363;SDS011;6246;50.826;4.712;2023-02-15T14:18:40;17.07;;;12.17;;
12363;SDS011;6246;50.826;4.712;2023-02-15T14:23:58;18.63;;;13.27;;
12363;SDS011;6246;50.826;4.712;2023-02-15T14:31:30;16.10;;;11.90;;
12363;SDS011;6246;50.826;4.712;2023-02-15T14:33:58;17.23;;;13.13;;
12363;SDS011;6246;50.826;4.712;2023-02-15T14:36:25;16.40;;;12.97;;
12363;SDS011;6246;50.826;4.712;2023-02-15T14:42:34;18.37;;;13.40;;
12363;SDS011;6246;50.826;4.712;2023-02-15T14:47:33;18.33;;;13.27;;
12363;SDS011;6246;50.826;4.712;2023-02-15T14:50:35;19.63;;;14.23;;
12363;SDS011;6246;50.826;4.712;2023-02-15T14:55:35;17.57;;;13.60;;
12363;SDS011;6246;50.826;4.712;2023-02-15T14:58:01;17.07;;;13.57;;
12363;SDS011;6246;50.826;4.712;2023-02-15T15:00:31;18.47;;;13.80;;
12363;SDS011;6246;50.826;4.712;2023-02-15T15:02:59;17.23;;;13.83;;
12363;SDS011;6246;50.826;4.712;2023-02-15T15:05:35;17.10;;;13.37;;
12363;SDS011;6246;50.826;4.712;2023-02-15T15:08:21;17.73;;;13.87;;
12363;SDS011;6246;50.826;4.712;2023-02-15T15:10:48;18.37;;;14.87;;
12363;SDS011;6246;50.826;4.712;2023-02-15T15:17:02;19.47;;;14.40;;
12363;SDS011;6246;50.826;4.712;2023-02-15T15:18:56;18.83;;;14.40;;
12363;SDS011;6246;50.826;4.712;2023-02-15T15:21:51;19.17;;;14.60;;
12363;SDS011;6246;50.826;4.712;2023-02-15T15:29:46;20.23;;;14.00;;
12363;SDS011;6246;50.826;4.712;2023-02-15T15:32:12;19.57;;;14.33;;
12363;SDS011;6246;50.826;4.712;2023-02-15T15:34:52;19.37;;;14.53;;
12363;SDS011;6246;50.826;4.712;2023-02-15T15:47:47;19.97;;;14.67;;
12363;SDS011;6246;50.826;4.712;2023-02-15T15:50:17;20.33;;;15.67;;
12363;SDS011;6246;50.826;4.712;2023-02-15T15:52:49;19.63;;;14.57;;
12363;SDS011;6246;50.826;4.712;2023-02-15T15:55:17;18.77;;;14.67;;
12363;SDS011;6246;50.826;4.712;2023-02-15T15:57:44;22.17;;;15.60;;
12363;SDS011;6246;50.826;4.712;2023-02-15T16:00:35;25.27;;;16.20;;
12363;SDS011;6246;50.826;4.712;2023-02-15T16:03:03;21.97;;;15.97;;
12363;SDS011;6246;50.826;4.712;2023-02-15T16:05:37;20.33;;;16.27;;
12363;SDS011;6246;50.826;4.712;2023-02-15T16:08:03;22.03;;;16.70;;
12363;SDS011;6246;50.826;4.712;2023-02-15T16:10:29;21.53;;;16.33;;
12363;SDS011;6246;50.826;4.712;2023-02-15T16:12:57;22.13;;;16.70;;
12363;SDS011;6246;50.826;4.712;2023-02-15T16:15:25;22.20;;;17.13;;
12363;SDS011;6246;50.826;4.712;2023-02-15T16:17:53;22.97;;;17.53;;
12363;SDS011;6246;50.826;4.712;2023-02-15T16:20:30;24.47;;;17.23;;
12363;SDS011;6246;50.826;4.712;2023-02-15T16:23:16;24.07;;;18.00;;
12363;SDS011;6246;50.826;4.712;2023-02-15T16:28:31;21.60;;;17.17;;
12363;SDS011;6246;50.826;4.712;2023-02-15T16:31:04;24.73;;;18.53;;
12363;SDS011;6246;50.826;4.712;2023-02-15T16:33:38;28.70;;;19.70;;
12363;SDS011;6246;50.826;4.712;2023-02-15T16:36:04;28.37;;;19.07;;
12363;SDS011;6246;50.826;4.712;2023-02-15T16:41:04;38.00;;;21.03;;
12363;SDS011;6246;50.826;4.712;2023-02-15T16:43:30;52.73;;;21.83;;
12363;SDS011;6246;50.826;4.712;2023-02-15T16:46:08;36.73;;;21.83;;
12363;SDS011;6246;50.826;4.712;2023-02-15T16:48:38;30.90;;;19.77;;
12363;SDS011;6246;50.826;4.712;2023-02-15T16:51:05;29.63;;;21.10;;
12363;SDS011;6246;50.826;4.712;2023-02-15T16:53:31;32.80;;;21.50;;
12363;SDS011;6246;50.826;4.712;2023-02-15T16:55:58;33.30;;;22.30;;
12363;SDS011;6246;50.826;4.712;2023-02-15T16:58:26;36.10;;;23.83;;
12363;SDS011;6246;50.826;4.712;2023-02-15T17:00:57;32.57;;;23.60;;
12363;SDS011;6246;50.826;4.712;2023-02-15T17:03:24;32.43;;;23.80;;
12363;SDS011;6246;50.826;4.712;2023-02-15T17:05:51;31.67;;;23.53;;
12363;SDS011;6246;50.826;4.712;2023-02-15T17:08:19;36.97;;;25.17;;
12363;SDS011;6246;50.826;4.712;2023-02-15T17:13:24;36.10;;;26.23;;
12363;SDS011;6246;50.826;4.712;2023-02-15T17:18:27;36.63;;;24.23;;
12363;SDS011;6246;50.826;4.712;2023-02-15T17:20:54;32.80;;;24.97;;
12363;SDS011;6246;50.826;4.712;2023-02-15T17:23:34;33.30;;;25.23;;
12363;SDS011;6246;50.826;4.712;2023-02-15T17:26:10;34.83;;;24.83;;
12363;SDS011;6246;50.826;4.712;2023-02-15T17:28:37;32.20;;;24.23;;
12363;SDS011;6246;50.826;4.712;2023-02-15T17:31:05;33.67;;;24.77;;
12363;SDS011;6246;50.826;4.712;2023-02-15T17:36:12;32.73;;;25.87;;
12363;SDS011;6246;50.826;4.712;2023-02-15T17:38:59;32.77;;;25.63;;
12363;SDS011;6246;50.826;4.712;2023-02-15T17:41:32;32.77;;;24.97;;
12363;SDS011;6246;50.826;4.712;2023-02-15T17:43:59;32.20;;;23.30;;
12363;SDS011;6246;50.826;4.712;2023-02-15T17:46:26;35.77;;;25.17;;
12363;SDS011;6246;50.826;4.712;2023-02-15T17:48:56;32.93;;;23.60;;
12363;SDS011;6246;50.826;4.712;2023-02-15T17:51:22;30.43;;;25.67;;
12363;SDS011;6246;50.826;4.712;2023-02-15T17:53:48;32.53;;;25.30;;
12363;SDS011;6246;50.826;4.712;2023-02-15T17:56:33;29.20;;;24.70;;
12363;SDS011;6246;50.826;4.712;2023-02-15T17:59:00;32.47;;;25.00;;